EmailTwitter


Observations de surface / Royaume-Uni / EGLL (03772)

Régions: Québec | Canada | États-Unis | Europe | France | UK | Ailleurs
Station
Affichage
Infos & localisation pour EGLL (03772) | Aide pour décoder les METARs

Observations prises le 2019-03-23 à 18H50 UTC à LONDON/HEATHROW, UK (EGLL)

Etat du ciel: partiellement nuageux.

Température: 11.0 Celsius

Point de rosée: 6.0 Celsius

Humidité relative: 71%

Vents: Nord-est à 11 km/h ou 6 noeuds.

Pression au niveau moyen de la mer: 103.20 kilopascals.

Visibilité horizontale: 6.21 milles terrestres ou 9.94 kilomètres.

Hauteur du plafond: 975 mètres ( 3200 pieds ).

Observation METAR:

EGLL 231850Z AUTO 06006KT 020V110 9999 BKN032 11/06 Q1032 NOSIG=